createdAt,value
2022-09-13T00:02:07.879Z,19.87
2022-09-13T00:04:34.490Z,19.87
2022-09-13T00:07:00.964Z,19.81
2022-09-13T00:09:32.264Z,19.80
2022-09-13T00:12:01.060Z,19.78
2022-09-13T00:14:27.614Z,19.79
2022-09-13T00:16:54.196Z,19.64
2022-09-13T00:19:20.709Z,19.77
2022-09-13T00:21:47.249Z,19.73
2022-09-13T00:24:16.490Z,19.73
2022-09-13T00:26:43.107Z,19.70
2022-09-13T00:29:09.641Z,19.67
2022-09-13T00:31:38.710Z,19.66
2022-09-13T00:34:05.318Z,19.65
2022-09-13T00:36:31.851Z,19.64
2022-09-13T00:39:00.400Z,19.60
2022-09-13T00:41:27.055Z,19.57
2022-09-13T00:43:59.502Z,19.61
2022-09-13T00:46:44.198Z,19.62
2022-09-13T00:49:13.622Z,19.60
2022-09-13T00:51:45.990Z,19.56
2022-09-13T00:54:15.285Z,19.57
2022-09-13T00:56:48.639Z,19.57
2022-09-13T00:59:58.348Z,19.46
2022-09-13T01:02:25.103Z,19.51
2022-09-13T01:04:51.846Z,19.52
2022-09-13T01:07:19.055Z,19.47
2022-09-13T01:09:52.699Z,19.51
2022-09-13T01:12:41.634Z,19.46
2022-09-13T01:15:10.886Z,19.46
2022-09-13T01:17:39.538Z,19.43
2022-09-13T01:20:10.913Z,19.41
2022-09-13T01:22:49.464Z,19.41
2022-09-13T01:25:55.469Z,19.39
2022-09-13T01:28:40.112Z,19.40
2022-09-13T01:31:31.694Z,19.41
2022-09-13T01:34:12.764Z,19.39
2022-09-13T01:36:50.126Z,19.38
2022-09-13T01:39:42.895Z,19.36
2022-09-13T01:42:28.746Z,19.27
2022-09-13T01:45:10.982Z,19.29
2022-09-13T01:48:16.570Z,19.35
2022-09-13T01:50:48.582Z,19.34
2022-09-13T01:53:35.098Z,19.30
2022-09-13T01:56:26.106Z,19.27
2022-09-13T01:59:22.800Z,19.31
2022-09-13T02:02:14.907Z,19.29
2022-09-13T02:04:47.592Z,19.31
2022-09-13T02:07:26.593Z,19.30
2022-09-13T02:10:00.354Z,19.31
2022-09-13T02:12:31.159Z,19.33
2022-09-13T02:15:07.190Z,19.30
2022-09-13T02:17:39.208Z,19.26
2022-09-13T02:20:21.367Z,19.30
2022-09-13T02:22:57.913Z,19.33
2022-09-13T02:25:29.080Z,19.32
2022-09-13T02:28:01.771Z,19.25
2022-09-13T02:30:31.648Z,19.17
2022-09-13T02:33:08.643Z,19.26
2022-09-13T02:36:17.429Z,19.29
2022-09-13T02:38:52.633Z,19.29
2022-09-13T02:41:31.263Z,19.30
2022-09-13T02:44:08.317Z,19.32
2022-09-13T02:46:43.606Z,19.31
2022-09-13T02:49:24.692Z,19.32
2022-09-13T02:52:17.130Z,19.32
2022-09-13T02:54:57.782Z,19.30
2022-09-13T02:57:38.677Z,19.28
2022-09-13T03:00:08.667Z,19.30
2022-09-13T03:02:38.380Z,19.30
2022-09-13T03:05:05.283Z,19.30
2022-09-13T03:07:31.779Z,19.23
2022-09-13T03:10:05.592Z,19.29
2022-09-13T03:12:44.233Z,19.27
2022-09-13T03:15:29.785Z,19.23
2022-09-13T03:18:28.723Z,19.22
2022-09-13T03:21:08.256Z,19.18
2022-09-13T03:23:34.738Z,19.15
2022-09-13T03:26:04.446Z,19.16
2022-09-13T03:29:06.538Z,19.13
2022-09-13T03:31:38.403Z,19.11
2022-09-13T03:34:15.752Z,19.06
2022-09-13T03:36:44.460Z,19.03
2022-09-13T03:39:22.996Z,19.06
2022-09-13T03:41:55.913Z,19.06
2022-09-13T03:44:26.005Z,19.06
2022-09-13T03:46:57.965Z,19.05
2022-09-13T03:49:27.027Z,19.02
2022-09-13T03:51:54.901Z,18.99
2022-09-13T03:54:30.159Z,18.96
2022-09-13T03:57:10.707Z,18.92
2022-09-13T03:59:39.620Z,18.87
2022-09-13T04:02:12.051Z,18.88
2022-09-13T04:04:40.409Z,18.85
2022-09-13T04:07:07.500Z,18.79
2022-09-13T04:09:34.215Z,18.78
2022-09-13T04:12:00.937Z,18.77
2022-09-13T04:14:28.289Z,18.73
2022-09-13T04:16:56.608Z,18.72
2022-09-13T04:19:24.193Z,18.68
2022-09-13T04:21:52.433Z,18.72
2022-09-13T04:24:19.648Z,18.70
2022-09-13T04:26:54.494Z,18.71
2022-09-13T04:29:22.661Z,18.53
2022-09-13T04:31:55.942Z,18.51
2022-09-13T04:34:23.246Z,18.67
2022-09-13T04:36:52.251Z,18.70
2022-09-13T04:39:22.235Z,18.70
2022-09-13T04:41:49.722Z,18.69
2022-09-13T04:44:19.283Z,18.70
2022-09-13T04:46:51.418Z,18.70
2022-09-13T04:49:18.712Z,18.69
2022-09-13T04:51:45.245Z,18.72
2022-09-13T04:54:15.578Z,18.70
2022-09-13T04:56:49.587Z,18.73
2022-09-13T04:59:16.908Z,18.73
2022-09-13T05:01:43.615Z,18.70
2022-09-13T05:04:10.574Z,18.71
2022-09-13T05:06:37.508Z,18.64
2022-09-13T05:09:04.236Z,18.70
2022-09-13T05:11:31.560Z,18.68
2022-09-13T05:13:59.943Z,18.70
2022-09-13T05:16:29.554Z,18.71
2022-09-13T05:18:57.105Z,18.70
2022-09-13T05:21:24.226Z,18.71
2022-09-13T05:23:54.954Z,18.70
2022-09-13T05:26:24.057Z,18.69
2022-09-13T05:28:51.161Z,18.75
2022-09-13T05:31:21.767Z,18.70
2022-09-13T05:33:54.157Z,18.75
2022-09-13T05:36:20.803Z,18.71
2022-09-13T05:38:58.067Z,18.75
2022-09-13T05:41:34.033Z,18.82
2022-09-13T05:44:10.401Z,18.81
2022-09-13T05:46:39.632Z,18.88
2022-09-13T05:49:06.228Z,18.90
2022-09-13T05:51:36.450Z,18.96
2022-09-13T05:54:05.438Z,18.93
2022-09-13T05:56:34.245Z,19.00
2022-09-13T05:59:00.751Z,19.02
2022-09-13T06:01:29.350Z,19.07
2022-09-13T06:03:59.749Z,19.07
2022-09-13T06:06:29.113Z,19.12
2022-09-13T06:08:57.585Z,19.18
2022-09-13T06:11:26.265Z,19.23
2022-09-13T06:13:55.355Z,19.33
2022-09-13T06:16:22.228Z,19.40
2022-09-13T06:18:49.211Z,19.44
2022-09-13T06:21:27.025Z,19.53
2022-09-13T06:23:55.683Z,19.58
2022-09-13T06:26:25.970Z,19.59
2022-09-13T06:28:54.695Z,19.55
2022-09-13T06:31:25.742Z,19.72
2022-09-13T06:34:05.518Z,19.79
2022-09-13T06:36:32.596Z,19.88
2022-09-13T06:39:01.781Z,20.04
2022-09-13T06:41:28.692Z,20.04
2022-09-13T06:43:59.373Z,20.32
2022-09-13T06:46:32.373Z,20.50
2022-09-13T06:49:00.773Z,20.68
2022-09-13T06:51:32.681Z,20.88
2022-09-13T06:54:03.976Z,21.06
2022-09-13T06:56:32.742Z,21.12
2022-09-13T06:59:01.195Z,21.31
2022-09-13T07:01:30.812Z,21.43
2022-09-13T07:04:03.623Z,21.56
2022-09-13T07:06:32.512Z,21.68
2022-09-13T07:09:01.378Z,21.78
2022-09-13T07:11:33.042Z,21.87
2022-09-13T07:14:02.503Z,21.96
2022-09-13T07:16:31.529Z,22.15
2022-09-13T07:19:05.585Z,22.26
2022-09-13T07:21:33.980Z,22.43
2022-09-13T07:24:00.711Z,22.63
2022-09-13T07:26:29.558Z,22.86
2022-09-13T07:28:59.206Z,23.09
2022-09-13T07:31:47.182Z,23.28
2022-09-13T07:34:19.011Z,23.51
2022-09-13T07:36:48.941Z,23.67
2022-09-13T07:39:22.037Z,23.89
2022-09-13T07:41:49.339Z,24.11
2022-09-13T07:44:15.901Z,24.49
2022-09-13T07:46:44.165Z,25.35
2022-09-13T07:49:12.998Z,25.71
2022-09-13T07:51:42.057Z,26.09
2022-09-13T07:54:14.185Z,25.97
2022-09-13T07:56:41.794Z,26.37
2022-09-13T07:59:13.763Z,27.12
2022-09-13T08:01:48.792Z,27.43
2022-09-13T08:04:21.278Z,26.88
2022-09-13T08:06:48.123Z,27.05
2022-09-13T08:09:15.890Z,27.21
2022-09-13T08:11:52.730Z,28.05
2022-09-13T08:14:21.531Z,28.50
2022-09-13T08:16:48.202Z,28.71
2022-09-13T08:19:19.807Z,28.30
2022-09-13T08:21:46.862Z,27.79
2022-09-13T08:24:19.126Z,28.14
2022-09-13T08:26:48.712Z,27.95
2022-09-13T08:29:18.757Z,27.44
2022-09-13T08:31:45.393Z,27.29
2022-09-13T08:34:14.631Z,27.17
2022-09-13T08:36:41.787Z,26.99
2022-09-13T08:39:09.367Z,27.21
2022-09-13T08:41:45.355Z,27.59
2022-09-13T08:44:31.155Z,27.89
2022-09-13T08:47:06.493Z,27.72
2022-09-13T08:49:41.534Z,27.69
2022-09-13T08:52:46.283Z,27.57
2022-09-13T08:55:30.053Z,27.59
2022-09-13T08:58:14.920Z,27.65
2022-09-13T09:00:46.779Z,27.80
2022-09-13T09:03:36.118Z,28.31
2022-09-13T09:06:02.780Z,28.24
2022-09-13T09:08:33.893Z,28.05
2022-09-13T09:11:07.908Z,27.96
2022-09-13T09:13:57.274Z,28.15
2022-09-13T09:16:40.092Z,28.43
2022-09-13T09:19:34.445Z,27.56
2022-09-13T09:22:05.940Z,27.53
2022-09-13T09:24:36.451Z,27.70
2022-09-13T09:27:14.372Z,27.79
2022-09-13T09:29:44.153Z,27.16
2022-09-13T09:32:44.223Z,26.71
2022-09-13T09:35:29.314Z,26.76
2022-09-13T09:38:31.405Z,26.81
2022-09-13T09:41:05.671Z,27.14
2022-09-13T09:43:48.591Z,26.78
2022-09-13T09:46:23.330Z,26.19
2022-09-13T09:48:54.990Z,25.96
2022-09-13T09:51:27.010Z,25.70
2022-09-13T09:54:02.001Z,25.64
2022-09-13T09:56:33.109Z,25.73
2022-09-13T09:59:02.608Z,25.87
2022-09-13T10:01:32.658Z,25.72
2022-09-13T10:04:14.230Z,25.69
2022-09-13T10:06:42.261Z,25.84
2022-09-13T10:09:16.730Z,26.04
2022-09-13T10:11:57.716Z,26.09
2022-09-13T10:14:40.144Z,25.90
2022-09-13T10:17:25.801Z,25.77
2022-09-13T10:20:15.393Z,26.02
2022-09-13T10:22:43.043Z,26.38
2022-09-13T10:25:25.109Z,26.79
2022-09-13T10:27:59.291Z,27.10
2022-09-13T10:30:34.959Z,26.79
2022-09-13T10:33:03.091Z,26.33
2022-09-13T10:35:30.117Z,26.18
2022-09-13T10:37:59.033Z,26.17
2022-09-13T10:40:34.164Z,26.39
2022-09-13T10:43:07.853Z,26.77
2022-09-13T10:45:38.767Z,26.99
2022-09-13T10:48:13.126Z,26.50
2022-09-13T10:50:40.030Z,26.19
2022-09-13T10:53:38.055Z,25.87
2022-09-13T10:56:06.307Z,25.66
2022-09-13T10:58:33.064Z,25.63
2022-09-13T11:01:23.902Z,25.73
2022-09-13T11:04:50.660Z,26.23
2022-09-13T11:07:25.088Z,26.48
2022-09-13T11:10:05.729Z,26.60
2022-09-13T11:13:04.621Z,26.80
2022-09-13T11:15:34.331Z,27.07
2022-09-13T11:18:17.064Z,27.10
2022-09-13T11:21:05.471Z,26.80
2022-09-13T11:24:17.094Z,26.03
2022-09-13T11:27:05.316Z,25.85
2022-09-13T11:30:02.205Z,25.74
2022-09-13T11:32:50.406Z,25.82
2022-09-13T11:35:32.215Z,25.90
2022-09-13T11:38:17.570Z,26.00
2022-09-13T11:40:51.510Z,26.19
2022-09-13T11:43:35.673Z,26.38
2022-09-13T11:46:12.063Z,26.56
2022-09-13T11:48:47.664Z,26.66
2022-09-13T11:51:19.983Z,26.78
2022-09-13T11:54:37.950Z,27.03
2022-09-13T11:57:15.169Z,27.36
2022-09-13T11:59:50.810Z,27.60
2022-09-13T12:02:34.529Z,27.59
2022-09-13T12:05:22.048Z,27.38
2022-09-13T12:08:14.787Z,27.42
2022-09-13T12:10:52.543Z,27.40
2022-09-13T12:13:29.563Z,27.33
2022-09-13T12:16:09.918Z,27.08
2022-09-13T12:18:47.977Z,26.94
2022-09-13T12:21:23.684Z,26.87
2022-09-13T12:24:14.391Z,26.76
2022-09-13T12:26:56.239Z,26.91
2022-09-13T12:29:50.303Z,26.96
2022-09-13T12:32:18.523Z,26.98
2022-09-13T12:34:58.932Z,27.00
2022-09-13T12:37:51.651Z,26.76
2022-09-13T12:40:51.609Z,26.73
2022-09-13T12:43:24.012Z,26.66
2022-09-13T12:45:59.697Z,26.72
2022-09-13T12:48:29.280Z,26.78
2022-09-13T12:51:12.494Z,26.91
2022-09-13T12:54:02.659Z,27.08
2022-09-13T12:57:03.320Z,27.16
2022-09-13T12:59:45.160Z,27.06
2022-09-13T13:02:30.662Z,27.28
2022-09-13T13:05:06.392Z,27.27
2022-09-13T13:07:38.213Z,27.23
2022-09-13T13:10:06.696Z,27.06
2022-09-13T13:12:40.770Z,26.70
2022-09-13T13:15:27.337Z,26.82
2022-09-13T13:17:55.468Z,26.85
2022-09-13T13:20:52.307Z,26.96
2022-09-13T13:23:23.369Z,27.04
2022-09-13T13:26:02.976Z,27.09
2022-09-13T13:28:47.838Z,27.15
2022-09-13T13:31:32.494Z,27.32
2022-09-13T13:34:14.383Z,27.37
2022-09-13T13:36:43.704Z,27.39
2022-09-13T13:39:33.758Z,27.25
2022-09-13T13:42:13.209Z,27.15
2022-09-13T13:44:42.456Z,27.15
2022-09-13T13:47:08.890Z,27.13
2022-09-13T13:49:41.300Z,27.06
2022-09-13T13:52:10.785Z,27.15
2022-09-13T13:54:44.245Z,27.25
2022-09-13T13:57:55.826Z,27.32
2022-09-13T14:00:30.335Z,27.31
2022-09-13T14:02:59.239Z,27.34
2022-09-13T14:05:49.025Z,27.32
2022-09-13T14:08:34.113Z,27.25
2022-09-13T14:11:29.847Z,27.25
2022-09-13T14:14:32.786Z,27.10
2022-09-13T14:17:15.544Z,27.09
2022-09-13T14:19:50.270Z,27.02
2022-09-13T14:22:25.341Z,26.84
2022-09-13T14:24:57.174Z,26.74
2022-09-13T14:27:29.203Z,26.79
2022-09-13T14:30:01.690Z,26.67
2022-09-13T14:32:39.835Z,26.70
2022-09-13T14:35:31.117Z,26.74
2022-09-13T14:38:12.162Z,26.77
2022-09-13T14:40:39.719Z,26.81
2022-09-13T14:43:25.991Z,26.91
2022-09-13T14:45:59.991Z,26.79
2022-09-13T14:48:37.142Z,26.70
2022-09-13T14:51:12.711Z,26.68
2022-09-13T14:53:42.995Z,26.62
2022-09-13T14:56:17.682Z,26.71
2022-09-13T14:58:58.486Z,26.80
2022-09-13T15:01:43.251Z,26.80
2022-09-13T15:04:10.021Z,26.69
2022-09-13T15:06:39.873Z,26.55
2022-09-13T15:09:12.898Z,26.53
2022-09-13T15:11:55.091Z,26.39
2022-09-13T15:14:35.013Z,26.34
2022-09-13T15:17:11.125Z,26.30
2022-09-13T15:19:37.639Z,26.22
2022-09-13T15:22:19.660Z,26.20
2022-09-13T15:24:54.577Z,26.16
2022-09-13T15:27:27.134Z,26.16
2022-09-13T15:30:03.471Z,26.08
2022-09-13T15:32:32.325Z,26.02
2022-09-13T15:35:00.937Z,25.82
2022-09-13T15:37:38.416Z,25.72
2022-09-13T15:40:13.337Z,25.60
2022-09-13T15:42:42.264Z,25.45
2022-09-13T15:45:09.322Z,25.46
2022-09-13T15:47:37.344Z,25.38
2022-09-13T15:50:04.290Z,25.35
2022-09-13T15:52:31.304Z,25.23
2022-09-13T15:55:00.129Z,25.20
2022-09-13T15:57:28.739Z,25.21
2022-09-13T16:00:01.437Z,25.25
2022-09-13T16:02:35.703Z,25.19
2022-09-13T16:05:05.586Z,25.14
2022-09-13T16:07:32.338Z,25.08
2022-09-13T16:09:59.006Z,24.96
2022-09-13T16:12:27.004Z,24.93
2022-09-13T16:14:54.778Z,24.86
2022-09-13T16:17:26.745Z,24.80
2022-09-13T16:19:54.498Z,24.74
2022-09-13T16:22:21.573Z,24.69
2022-09-13T16:24:50.911Z,24.67
2022-09-13T16:27:19.358Z,24.66
2022-09-13T16:29:50.765Z,24.62
2022-09-13T16:32:17.411Z,24.59
2022-09-13T16:34:47.545Z,24.46
2022-09-13T16:37:16.340Z,24.44
2022-09-13T16:39:43.044Z,24.37
2022-09-13T16:42:10.348Z,24.27
2022-09-13T16:44:36.947Z,24.18
2022-09-13T16:47:04.273Z,24.11
2022-09-13T16:49:33.331Z,23.99
2022-09-13T16:51:59.867Z,23.93
2022-09-13T16:54:27.564Z,23.79
2022-09-13T16:56:57.481Z,23.64
2022-09-13T16:59:31.446Z,23.72
2022-09-13T17:01:58.171Z,23.66
2022-09-13T17:04:25.560Z,23.63
2022-09-13T17:06:52.147Z,23.47
2022-09-13T17:09:23.711Z,23.47
2022-09-13T17:11:50.507Z,23.42
2022-09-13T17:14:17.870Z,23.34
2022-09-13T17:16:52.125Z,23.26
2022-09-13T17:19:25.244Z,23.16
2022-09-13T17:21:53.585Z,23.13
2022-09-13T17:24:23.094Z,23.00
2022-09-13T17:26:49.732Z,22.92
2022-09-13T17:29:16.267Z,22.94
2022-09-13T17:31:43.490Z,22.83
2022-09-13T17:34:11.261Z,22.75
2022-09-13T17:36:42.053Z,22.72
2022-09-13T17:39:09.249Z,22.58
2022-09-13T17:41:36.458Z,22.64
2022-09-13T17:44:04.025Z,22.56
2022-09-13T17:46:31.024Z,22.48
2022-09-13T17:48:59.537Z,22.41
2022-09-13T17:51:30.726Z,22.32
2022-09-13T17:54:03.533Z,22.30
2022-09-13T17:56:37.272Z,22.20
2022-09-13T17:59:10.209Z,22.21
2022-09-13T18:01:41.951Z,22.15
2022-09-13T18:04:09.849Z,22.09
2022-09-13T18:06:40.778Z,22.04
2022-09-13T18:09:07.364Z,22.02
2022-09-13T18:11:34.080Z,21.97
2022-09-13T18:14:00.611Z,21.94
2022-09-13T18:16:29.399Z,21.88
2022-09-13T18:18:56.467Z,21.85
2022-09-13T18:21:27.554Z,21.68
2022-09-13T18:23:58.308Z,21.75
2022-09-13T18:26:29.835Z,21.71
2022-09-13T18:29:04.189Z,21.65
2022-09-13T18:31:32.837Z,21.58
2022-09-13T18:34:02.214Z,21.49
2022-09-13T18:36:33.390Z,21.45
2022-09-13T18:39:04.765Z,21.36
2022-09-13T18:41:37.607Z,21.32
2022-09-13T18:44:09.464Z,21.22
2022-09-13T18:46:37.460Z,21.15
2022-09-13T18:49:05.834Z,21.08
2022-09-13T18:51:35.734Z,21.03
2022-09-13T18:54:04.565Z,20.97
2022-09-13T18:56:33.165Z,20.87
2022-09-13T18:59:02.127Z,20.85
2022-09-13T19:01:32.689Z,20.82
2022-09-13T19:04:06.236Z,20.79
2022-09-13T19:06:38.918Z,20.66
2022-09-13T19:09:06.965Z,20.61
2022-09-13T19:11:52.027Z,20.55
2022-09-13T19:14:24.622Z,20.55
2022-09-13T19:16:53.974Z,20.53
2022-09-13T19:19:20.673Z,20.45
2022-09-13T19:21:48.732Z,20.40
2022-09-13T19:24:18.686Z,20.43
2022-09-13T19:26:50.816Z,20.45
2022-09-13T19:29:23.007Z,20.43
2022-09-13T19:31:52.826Z,20.43
2022-09-13T19:34:21.430Z,20.41
2022-09-13T19:36:53.735Z,20.35
2022-09-13T19:39:20.453Z,20.34
2022-09-13T19:41:47.061Z,20.33
2022-09-13T19:44:14.368Z,20.33
2022-09-13T19:46:42.385Z,20.18
2022-09-13T19:49:13.894Z,20.24
2022-09-13T19:51:41.669Z,20.14
2022-09-13T19:54:12.144Z,20.12
2022-09-13T19:56:42.724Z,20.08
2022-09-13T19:59:12.202Z,20.01
2022-09-13T20:01:41.521Z,20.00
2022-09-13T20:04:12.241Z,19.91
2022-09-13T20:06:44.184Z,19.82
2022-09-13T20:09:15.520Z,19.80
2022-09-13T20:11:46.679Z,19.72
2022-09-13T20:14:15.452Z,19.65
2022-09-13T20:16:43.145Z,19.58
2022-09-13T20:19:38.933Z,19.58
2022-09-13T20:22:01.406Z,19.55
2022-09-13T20:24:28.211Z,19.56
2022-09-13T20:26:57.284Z,19.55
2022-09-13T20:29:24.626Z,19.51
2022-09-13T20:31:51.214Z,19.39
2022-09-13T20:34:17.993Z,19.47
2022-09-13T20:36:45.497Z,19.40
2022-09-13T20:39:12.032Z,19.41
2022-09-13T20:41:38.637Z,19.35
2022-09-13T20:44:05.286Z,19.31
2022-09-13T20:46:31.979Z,19.23
2022-09-13T20:49:01.789Z,19.19
2022-09-13T20:51:32.698Z,19.13
2022-09-13T20:54:01.154Z,19.17
2022-09-13T20:56:29.153Z,19.13
2022-09-13T20:59:00.151Z,19.11
2022-09-13T21:01:29.745Z,18.96
2022-09-13T21:03:57.664Z,19.08
2022-09-13T21:06:26.549Z,19.04
2022-09-13T21:08:59.637Z,18.97
2022-09-13T21:11:33.980Z,18.92
2022-09-13T21:14:03.428Z,18.82
2022-09-13T21:16:34.966Z,18.86
2022-09-13T21:19:01.579Z,18.82
2022-09-13T21:21:33.801Z,18.77
2022-09-13T21:24:04.719Z,18.71
2022-09-13T21:26:31.952Z,18.69
2022-09-13T21:28:58.865Z,18.70
2022-09-13T21:31:28.245Z,18.68
2022-09-13T21:34:00.568Z,18.48
2022-09-13T21:36:28.752Z,18.61
2022-09-13T21:38:56.130Z,18.55
2022-09-13T21:41:24.041Z,18.49
2022-09-13T21:43:55.469Z,18.51
2022-09-13T21:46:24.951Z,18.52
2022-09-13T21:48:56.215Z,18.51
2022-09-13T21:51:25.973Z,18.58
2022-09-13T21:53:58.500Z,18.58
2022-09-13T21:56:27.933Z,18.56
2022-09-13T21:58:58.335Z,18.52
2022-09-13T22:01:30.025Z,18.50
2022-09-13T22:03:57.272Z,18.40
2022-09-13T22:06:24.394Z,18.45
2022-09-13T22:08:53.990Z,18.47
2022-09-13T22:11:26.435Z,18.37
2022-09-13T22:13:53.779Z,18.39
2022-09-13T22:16:31.443Z,18.40
2022-09-13T22:19:09.249Z,18.40
2022-09-13T22:21:40.908Z,18.38
2022-09-13T22:24:11.643Z,18.37
2022-09-13T22:26:40.867Z,18.41
2022-09-13T22:29:10.578Z,18.39
2022-09-13T22:31:39.883Z,18.34
2022-09-13T22:34:07.922Z,18.25
2022-09-13T22:36:36.799Z,18.24
2022-09-13T22:39:03.732Z,18.14
2022-09-13T22:41:33.346Z,18.27
2022-09-13T22:44:02.904Z,18.16
2022-09-13T22:46:32.918Z,18.14
2022-09-13T22:48:59.959Z,18.12
2022-09-13T22:51:27.021Z,18.08
2022-09-13T22:53:54.572Z,18.09
2022-09-13T22:56:27.958Z,18.13
2022-09-13T22:59:07.681Z,18.11
2022-09-13T23:01:35.257Z,18.09
2022-09-13T23:04:02.323Z,18.03
2022-09-13T23:06:34.181Z,18.08
2022-09-13T23:09:03.091Z,18.03
2022-09-13T23:11:32.265Z,18.03
2022-09-13T23:14:01.649Z,18.00
2022-09-13T23:16:31.311Z,17.97
2022-09-13T23:19:00.282Z,17.89
2022-09-13T23:21:31.796Z,17.95
2022-09-13T23:24:04.654Z,17.96
2022-09-13T23:26:31.485Z,17.96
2022-09-13T23:29:00.205Z,17.88
2022-09-13T23:31:32.246Z,17.90
2022-09-13T23:34:01.907Z,17.94
2022-09-13T23:36:31.132Z,17.95
2022-09-13T23:38:59.294Z,17.93
2022-09-13T23:41:26.239Z,17.88
2022-09-13T23:43:54.175Z,17.94
2022-09-13T23:46:21.037Z,17.94
2022-09-13T23:48:47.897Z,17.88
2022-09-13T23:51:19.948Z,17.88
2022-09-13T23:53:49.796Z,17.88
2022-09-13T23:56:18.989Z,17.88
2022-09-13T23:58:45.852Z,17.84
